Hai Gong You302 — BCGG — position and weather

sailwx.info

Track history (hours):
 
Tides and Currents Weather Stations Pressure Air Temp Water Temp Dewpoint Dewpoint Depression Visibility Wind Speed Wind Dir Waves Ship Positions

Hai Gong You302

Last reported at 2018-Jun-09 15:52 UTC. Time now 2018-Jun-25 02:18 UTC.
Position N 27°46' W 015°19'.
Warning: this ship's position is 15 days out of date.

Length 95 m; draft 5 m.

Type: Tanker. MMSI: 412660220.

Date/timePositionNaut miles runAvg speedWind from/ knotsBaromVisibWave heightAir tempDewpointWater temp
2018-Jun-09 15:52N 27°46' W 015°19'3 8.2
2018-Jun-09 15:30N 27°49' W 015°19'8 8.5
2018-Jun-09 14:30N 27°57' W 015°18'4 8.2
2018-Jun-09 14:00N 28°01' W 015°20'4 8.2
2018-Jun-09 13:30N 28°05' W 015°22'4 7.3
2018-Jun-09 13:00N 28°07' W 015°25'1 2.2
2018-Jun-09 12:24N 28°09' W 015°24'0 0.0
2018-Jun-09 11:54N 28°09' W 015°24'0 0.0
2018-Jun-09 11:24N 28°09' W 015°24'0 0.0
2018-Jun-09 10:57N 28°09' W 015°24'0 0.0
2018-Jun-09 10:27N 28°09' W 015°24'0 0.0
2018-Jun-09 09:57N 28°09' W 015°24'0 0.0
2018-Jun-09 09:26N 28°09' W 015°24'0 0.0
2018-Jun-09 08:56N 28°09' W 015°24'0 0.0
2018-Jun-09 08:26N 28°09' W 015°24'0 0.0
2018-Jun-09 07:56N 28°09' W 015°24'0 0.0
2018-Jun-09 07:26N 28°09' W 015°24'0 0.0
2018-Jun-09 06:56N 28°09' W 015°24'0 0.0
2018-Jun-09 06:26N 28°09' W 015°24'0 0.0
2018-Jun-09 05:56N 28°09' W 015°24'0 0.0
2018-Jun-09 05:29N 28°09' W 015°24'0 0.0
2018-Jun-09 04:59N 28°09' W 015°24'0 0.0
2018-Jun-09 04:29N 28°09' W 015°24'0 0.0
2018-Jun-09 03:59N 28°09' W 015°24'0 0.0
2018-Jun-09 03:29N 28°09' W 015°24'0 0.0
2018-Jun-09 02:59N 28°09' W 015°24'0 0.0
2018-Jun-09 02:29N 28°09' W 015°24'0 0.0
2018-Jun-09 01:59N 28°09' W 015°24'0 0.0
2018-Jun-09 01:26N 28°09' W 015°24'0 0.0
2018-Jun-09 00:59N 28°09' W 015°24'0 0.0
2018-Jun-09 00:29N 28°09' W 015°24'0 0.0
2018-Jun-08 23:59N 28°09' W 015°24'0 0.0
2018-Jun-08 23:29N 28°09' W 015°24'0 0.0
2018-Jun-08 22:59N 28°09' W 015°24'0 0.0
2018-Jun-08 22:29N 28°09' W 015°24'0 0.0
2018-Jun-08 21:59N 28°09' W 015°24'0 0.0
2018-Jun-08 21:29N 28°09' W 015°24'0 0.0
2018-Jun-08 20:47N 28°09' W 015°24'0 0.0
2018-Jun-08 20:29N 28°09' W 015°24'0 0.0
2018-Jun-08 19:59N 28°09' W 015°24'0 0.0
2018-Jun-08 19:29N 28°09' W 015°24'0 0.0
2018-Jun-08 18:59N 28°09' W 015°24'0 0.0
2018-Jun-08 18:29N 28°09' W 015°24'0 0.0
2018-Jun-08 17:59N 28°09' W 015°24'0 0.0
2018-Jun-08 17:29N 28°09' W 015°24'0 0.0
2018-Jun-08 16:59N 28°09' W 015°24'0 0.0
2018-Jun-08 16:20N 28°09' W 015°24'0 0.0
2018-Jun-08 15:50N 28°09' W 015°24'0 0.0
2018-Jun-08 15:20N 28°09' W 015°24'0 0.0
2018-Jun-08 14:50N 28°09' W 015°24'0 0.0
2018-Jun-08 14:20N 28°09' W 015°24'0 0.0
2018-Jun-08 13:50N 28°09' W 015°24'0 0.0
2018-Jun-08 13:23N 28°09' W 015°24'0 0.0
2018-Jun-08 12:53N 28°09' W 015°24'0 0.0
2018-Jun-08 12:23N 28°09' W 015°24'0 0.0
2018-Jun-08 11:53N 28°09' W 015°24'0 0.0
2018-Jun-08 11:23N 28°09' W 015°24'0 0.0
2018-Jun-08 10:53N 28°09' W 015°24'0 0.0
2018-Jun-08 10:23N 28°09' W 015°24'0 0.0
2018-Jun-08 09:53N 28°09' W 015°24'0 0.0
2018-Jun-08 09:23N 28°09' W 015°24'0 0.0
2018-Jun-08 08:53N 28°09' W 015°24'0 0.0
2018-Jun-08 08:26N 28°09' W 015°24'0 0.0
2018-Jun-08 07:56N 28°09' W 015°24'0 0.0
2018-Jun-08 07:26N 28°09' W 015°24'0 0.0
2018-Jun-08 06:59N 28°09' W 015°24'1 2.5
2018-Jun-08 06:30N 28°08' W 015°24'3 5.9
2018-Jun-08 06:00N 28°05' W 015°22'4 7.7
2018-Jun-08 05:30N 28°02' W 015°21'4 7.8
2018-Jun-08 05:00N 27°58' W 015°18'4 7.4
2018-Jun-08 04:30N 27°55' W 015°19'4 7.5
2018-Jun-08 04:00N 27°51' W 015°20'  
Track history (hours):
 
Tides and Currents Weather Stations Pressure Air Temp Water Temp Dewpoint Dewpoint Depression Visibility Wind Speed Wind Dir Waves Ship Positions

Hai Gong You302

Last reported at 2018-Jun-09 15:52 UTC. Time now 2018-Jun-25 02:18 UTC.
Position N 27°46' W 015°19'.
Warning: this ship's position is 15 days out of date.

Length 95 m; draft 5 m.

Type: Tanker. MMSI: 412660220.

Date/timePositionNaut miles runAvg speedWind from/ knotsBaromVisibWave heightAir tempDewpointWater temp
2018-Jun-09 15:52N 27°46' W 015°19'3 8.2
2018-Jun-09 15:30N 27°49' W 015°19'8 8.5
2018-Jun-09 14:30N 27°57' W 015°18'4 8.2
2018-Jun-09 14:00N 28°01' W 015°20'4 8.2
2018-Jun-09 13:30N 28°05' W 015°22'4 7.3
2018-Jun-09 13:00N 28°07' W 015°25'1 2.2
2018-Jun-09 12:24N 28°09' W 015°24'0 0.0
2018-Jun-09 11:54N 28°09' W 015°24'0 0.0
2018-Jun-09 11:24N 28°09' W 015°24'0 0.0
2018-Jun-09 10:57N 28°09' W 015°24'0 0.0
2018-Jun-09 10:27N 28°09' W 015°24'0 0.0
2018-Jun-09 09:57N 28°09' W 015°24'0 0.0
2018-Jun-09 09:26N 28°09' W 015°24'0 0.0
2018-Jun-09 08:56N 28°09' W 015°24'0 0.0
2018-Jun-09 08:26N 28°09' W 015°24'0 0.0
2018-Jun-09 07:56N 28°09' W 015°24'0 0.0
2018-Jun-09 07:26N 28°09' W 015°24'0 0.0
2018-Jun-09 06:56N 28°09' W 015°24'0 0.0
2018-Jun-09 06:26N 28°09' W 015°24'0 0.0
2018-Jun-09 05:56N 28°09' W 015°24'0 0.0
2018-Jun-09 05:29N 28°09' W 015°24'0 0.0
2018-Jun-09 04:59N 28°09' W 015°24'0 0.0
2018-Jun-09 04:29N 28°09' W 015°24'0 0.0
2018-Jun-09 03:59N 28°09' W 015°24'0 0.0
2018-Jun-09 03:29N 28°09' W 015°24'0 0.0
2018-Jun-09 02:59N 28°09' W 015°24'0 0.0
2018-Jun-09 02:29N 28°09' W 015°24'0 0.0
2018-Jun-09 01:59N 28°09' W 015°24'0 0.0
2018-Jun-09 01:26N 28°09' W 015°24'0 0.0
2018-Jun-09 00:59N 28°09' W 015°24'0 0.0
2018-Jun-09 00:29N 28°09' W 015°24'0 0.0
2018-Jun-08 23:59N 28°09' W 015°24'0 0.0
2018-Jun-08 23:29N 28°09' W 015°24'0 0.0
2018-Jun-08 22:59N 28°09' W 015°24'0 0.0
2018-Jun-08 22:29N 28°09' W 015°24'0 0.0
2018-Jun-08 21:59N 28°09' W 015°24'0 0.0
2018-Jun-08 21:29N 28°09' W 015°24'0 0.0
2018-Jun-08 20:47N 28°09' W 015°24'0 0.0
2018-Jun-08 20:29N 28°09' W 015°24'0 0.0
2018-Jun-08 19:59N 28°09' W 015°24'0 0.0
2018-Jun-08 19:29N 28°09' W 015°24'0 0.0
2018-Jun-08 18:59N 28°09' W 015°24'0 0.0
2018-Jun-08 18:29N 28°09' W 015°24'0 0.0
2018-Jun-08 17:59N 28°09' W 015°24'0 0.0
2018-Jun-08 17:29N 28°09' W 015°24'0 0.0
2018-Jun-08 16:59N 28°09' W 015°24'0 0.0
2018-Jun-08 16:20N 28°09' W 015°24'0 0.0
2018-Jun-08 15:50N 28°09' W 015°24'0 0.0
2018-Jun-08 15:20N 28°09' W 015°24'0 0.0
2018-Jun-08 14:50N 28°09' W 015°24'0 0.0
2018-Jun-08 14:20N 28°09' W 015°24'0 0.0
2018-Jun-08 13:50N 28°09' W 015°24'0 0.0
2018-Jun-08 13:23N 28°09' W 015°24'0 0.0
2018-Jun-08 12:53N 28°09' W 015°24'0 0.0
2018-Jun-08 12:23N 28°09' W 015°24'0 0.0
2018-Jun-08 11:53N 28°09' W 015°24'0 0.0
2018-Jun-08 11:23N 28°09' W 015°24'0 0.0
2018-Jun-08 10:53N 28°09' W 015°24'0 0.0
2018-Jun-08 10:23N 28°09' W 015°24'0 0.0
2018-Jun-08 09:53N 28°09' W 015°24'0 0.0
2018-Jun-08 09:23N 28°09' W 015°24'0 0.0
2018-Jun-08 08:53N 28°09' W 015°24'0 0.0
2018-Jun-08 08:26N 28°09' W 015°24'0 0.0
2018-Jun-08 07:56N 28°09' W 015°24'0 0.0
2018-Jun-08 07:26N 28°09' W 015°24'0 0.0
2018-Jun-08 06:59N 28°09' W 015°24'1 2.5
2018-Jun-08 06:30N 28°08' W 015°24'3 5.9
2018-Jun-08 06:00N 28°05' W 015°22'4 7.7
2018-Jun-08 05:30N 28°02' W 015°21'4 7.8
2018-Jun-08 05:00N 27°58' W 015°18'4 7.4
2018-Jun-08 04:30N 27°55' W 015°19'4 7.5
2018-Jun-08 04:00N 27°51' W 015°20'  

Dump ship's entire track history